sensor_id;sensor_type;location;lat;lon;timestamp;pressure;altitude;pressure_sealevel;temperature;humidity
68889;BME280;55930;47.412;8.790;2023-07-20T00:00:20;94533.63;;;18.87;98.11
68889;BME280;55930;47.412;8.790;2023-07-20T00:03:40;94526.84;;;18.99;94.30
68889;BME280;55930;47.412;8.790;2023-07-20T00:07:01;94533.88;;;18.70;100.00
68889;BME280;55930;47.412;8.790;2023-07-20T00:10:23;94535.28;;;18.58;100.00
68889;BME280;55930;47.412;8.790;2023-07-20T00:13:44;94533.97;;;18.46;100.00
68889;BME280;55930;47.412;8.790;2023-07-20T00:17:04;94539.69;;;18.36;100.00
68889;BME280;55930;47.412;8.790;2023-07-20T00:20:25;94538.47;;;18.38;100.00
68889;BME280;55930;47.412;8.790;2023-07-20T00:23:45;94538.41;;;18.24;100.00
68889;BME280;55930;47.412;8.790;2023-07-20T00:27:06;94538.19;;;18.22;100.00
68889;BME280;55930;47.412;8.790;2023-07-20T00:30:26;94541.53;;;18.28;100.00
68889;BME280;55930;47.412;8.790;2023-07-20T00:33:47;94539.50;;;18.16;100.00
68889;BME280;55930;47.412;8.790;2023-07-20T00:37:07;94536.81;;;18.16;100.00
68889;BME280;55930;47.412;8.790;2023-07-20T00:40:28;94539.47;;;17.97;100.00
68889;BME280;55930;47.412;8.790;2023-07-20T00:43:48;94532.31;;;18.05;100.00
68889;BME280;55930;47.412;8.790;2023-07-20T00:47:09;94532.66;;;17.96;100.00
68889;BME280;55930;47.412;8.790;2023-07-20T00:50:29;94533.69;;;17.93;100.00
68889;BME280;55930;47.412;8.790;2023-07-20T00:53:50;94527.28;;;17.77;100.00
68889;BME280;55930;47.412;8.790;2023-07-20T00:57:10;94534.28;;;17.86;100.00
68889;BME280;55930;47.412;8.790;2023-07-20T01:00:32;94539.69;;;17.80;100.00
68889;BME280;55930;47.412;8.790;2023-07-20T01:03:53;94532.50;;;17.88;100.00
68889;BME280;55930;47.412;8.790;2023-07-20T01:07:25;94525.56;;;17.55;100.00
68889;BME280;55930;47.412;8.790;2023-07-20T01:10:54;94536.19;;;17.67;100.00
68889;BME280;55930;47.412;8.790;2023-07-20T01:14:17;94537.91;;;17.64;100.00
68889;BME280;55930;47.412;8.790;2023-07-20T01:17:37;94530.88;;;17.61;100.00
68889;BME280;55930;47.412;8.790;2023-07-20T01:21:02;94537.28;;;17.52;100.00
68889;BME280;55930;47.412;8.790;2023-07-20T01:24:34;94537.00;;;17.56;100.00
68889;BME280;55930;47.412;8.790;2023-07-20T01:28:24;94530.41;;;17.57;100.00
68889;BME280;55930;47.412;8.790;2023-07-20T01:31:52;94526.84;;;17.49;100.00
68889;BME280;55930;47.412;8.790;2023-07-20T01:35:15;94524.50;;;17.40;100.00
68889;BME280;55930;47.412;8.790;2023-07-20T01:38:37;94534.13;;;17.30;100.00
68889;BME280;55930;47.412;8.790;2023-07-20T01:41:57;94531.47;;;17.48;100.00
68889;BME280;55930;47.412;8.790;2023-07-20T01:45:18;94524.50;;;17.40;100.00
68889;BME280;55930;47.412;8.790;2023-07-20T01:48:39;94518.69;;;17.36;100.00
68889;BME280;55930;47.412;8.790;2023-07-20T01:51:59;94520.16;;;17.37;100.00
68889;BME280;55930;47.412;8.790;2023-07-20T01:55:20;94517.56;;;17.50;100.00
68889;BME280;55930;47.412;8.790;2023-07-20T01:58:42;94521.69;;;17.51;100.00
68889;BME280;55930;47.412;8.790;2023-07-20T02:02:03;94522.72;;;17.48;100.00
68889;BME280;55930;47.412;8.790;2023-07-20T02:05:23;94526.91;;;17.43;100.00
68889;BME280;55930;47.412;8.790;2023-07-20T02:08:44;94533.53;;;17.61;100.00
68889;BME280;55930;47.412;8.790;2023-07-20T02:12:04;94527.56;;;17.49;100.00
68889;BME280;55930;47.412;8.790;2023-07-20T02:15:25;94535.78;;;17.57;100.00
68889;BME280;55930;47.412;8.790;2023-07-20T02:18:47;94521.19;;;17.52;100.00
68889;BME280;55930;47.412;8.790;2023-07-20T02:22:08;94535.09;;;17.51;100.00
68889;BME280;55930;47.412;8.790;2023-07-20T02:25:28;94535.47;;;17.66;100.00
68889;BME280;55930;47.412;8.790;2023-07-20T02:28:48;94530.81;;;17.67;100.00
68889;BME280;55930;47.412;8.790;2023-07-20T02:32:09;94527.72;;;17.57;100.00
68889;BME280;55930;47.412;8.790;2023-07-20T02:35:34;94523.59;;;17.56;100.00
68889;BME280;55930;47.412;8.790;2023-07-20T02:38:55;94528.75;;;17.54;100.00
68889;BME280;55930;47.412;8.790;2023-07-20T02:42:16;94535.00;;;17.38;100.00
68889;BME280;55930;47.412;8.790;2023-07-20T02:45:40;94541.13;;;17.33;100.00
68889;BME280;55930;47.412;8.790;2023-07-20T02:49:00;94537.47;;;17.36;100.00
68889;BME280;55930;47.412;8.790;2023-07-20T02:52:21;94535.69;;;17.44;100.00
68889;BME280;55930;47.412;8.790;2023-07-20T02:55:41;94538.59;;;17.46;100.00
68889;BME280;55930;47.412;8.790;2023-07-20T02:59:01;94538.97;;;17.55;100.00
68889;BME280;55930;47.412;8.790;2023-07-20T03:02:22;94539.34;;;17.41;100.00
68889;BME280;55930;47.412;8.790;2023-07-20T03:05:43;94538.28;;;17.49;100.00
68889;BME280;55930;47.412;8.790;2023-07-20T03:09:04;94534.38;;;17.26;100.00
68889;BME280;55930;47.412;8.790;2023-07-20T03:12:24;94540.47;;;17.27;100.00
68889;BME280;55930;47.412;8.790;2023-07-20T03:15:45;94542.19;;;17.24;100.00
68889;BME280;55930;47.412;8.790;2023-07-20T03:19:05;94545.97;;;17.40;100.00
68889;BME280;55930;47.412;8.790;2023-07-20T03:22:29;94538.13;;;17.42;100.00
68889;BME280;55930;47.412;8.790;2023-07-20T03:25:51;94534.78;;;17.36;100.00
68889;BME280;55930;47.412;8.790;2023-07-20T03:29:14;94536.06;;;17.29;100.00
68889;BME280;55930;47.412;8.790;2023-07-20T03:32:36;94538.00;;;17.04;100.00
68889;BME280;55930;47.412;8.790;2023-07-20T03:35:59;94538.25;;;17.31;100.00
68889;BME280;55930;47.412;8.790;2023-07-20T03:39:20;94546.91;;;17.42;100.00
68889;BME280;55930;47.412;8.790;2023-07-20T03:42:42;94547.63;;;17.43;100.00
68889;BME280;55930;47.412;8.790;2023-07-20T03:46:02;94539.88;;;17.39;100.00
68889;BME280;55930;47.412;8.790;2023-07-20T03:49:27;94538.75;;;17.29;100.00
68889;BME280;55930;47.412;8.790;2023-07-20T03:52:48;94542.97;;;17.19;100.00
68889;BME280;55930;47.412;8.790;2023-07-20T03:56:08;94540.28;;;16.95;100.00
68889;BME280;55930;47.412;8.790;2023-07-20T03:59:29;94550.31;;;16.89;100.00
68889;BME280;55930;47.412;8.790;2023-07-20T04:02:49;94536.53;;;17.03;100.00
68889;BME280;55930;47.412;8.790;2023-07-20T04:06:09;94537.69;;;17.13;100.00
68889;BME280;55930;47.412;8.790;2023-07-20T04:09:31;94547.19;;;17.14;100.00
68889;BME280;55930;47.412;8.790;2023-07-20T04:12:51;94542.97;;;17.19;100.00
68889;BME280;55930;47.412;8.790;2023-07-20T04:16:12;94551.84;;;17.08;100.00
68889;BME280;55930;47.412;8.790;2023-07-20T04:19:32;94544.59;;;17.03;100.00
68889;BME280;55930;47.412;8.790;2023-07-20T04:22:52;94555.00;;;17.12;100.00
68889;BME280;55930;47.412;8.790;2023-07-20T04:26:15;94555.72;;;17.13;100.00
68889;BME280;55930;47.412;8.790;2023-07-20T04:29:35;94549.00;;;17.25;100.00
68889;BME280;55930;47.412;8.790;2023-07-20T04:32:56;94559.75;;;17.25;100.00
68889;BME280;55930;47.412;8.790;2023-07-20T04:36:16;94559.03;;;17.49;100.00
68889;BME280;55930;47.412;8.790;2023-07-20T04:39:39;94566.47;;;17.37;100.00
68889;BME280;55930;47.412;8.790;2023-07-20T04:42:59;94569.97;;;17.51;100.00
68889;BME280;55930;47.412;8.790;2023-07-20T04:46:20;94563.38;;;17.52;100.00
68889;BME280;55930;47.412;8.790;2023-07-20T04:49:41;94563.97;;;17.69;100.00
68889;BME280;55930;47.412;8.790;2023-07-20T04:53:02;94557.59;;;17.48;100.00
68889;BME280;55930;47.412;8.790;2023-07-20T04:56:23;94571.38;;;17.57;100.00
68889;BME280;55930;47.412;8.790;2023-07-20T04:59:44;94567.63;;;17.72;100.00
68889;BME280;55930;47.412;8.790;2023-07-20T05:03:04;94575.47;;;17.88;100.00
68889;BME280;55930;47.412;8.790;2023-07-20T05:06:25;94572.78;;;17.88;100.00
68889;BME280;55930;47.412;8.790;2023-07-20T05:09:46;94579.28;;;17.74;100.00
68889;BME280;55930;47.412;8.790;2023-07-20T05:13:06;94569.16;;;17.86;100.00
68889;BME280;55930;47.412;8.790;2023-07-20T05:16:26;94573.22;;;17.92;100.00
68889;BME280;55930;47.412;8.790;2023-07-20T05:19:47;94571.63;;;17.84;100.00
68889;BME280;55930;47.412;8.790;2023-07-20T05:23:07;94571.66;;;18.03;100.00
68889;BME280;55930;47.412;8.790;2023-07-20T05:26:27;94563.31;;;18.25;98.12
68889;BME280;55930;47.412;8.790;2023-07-20T05:29:48;94575.88;;;18.35;97.12
68889;BME280;55930;47.412;8.790;2023-07-20T05:33:08;94566.13;;;18.70;95.14
68889;BME280;55930;47.412;8.790;2023-07-20T05:36:28;94561.31;;;18.82;86.76
68889;BME280;55930;47.412;8.790;2023-07-20T05:39:51;94564.94;;;18.84;82.92
68889;BME280;55930;47.412;8.790;2023-07-20T05:43:14;94562.94;;;18.71;82.03
68889;BME280;55930;47.412;8.790;2023-07-20T05:46:34;94558.16;;;18.64;91.06
68889;BME280;55930;47.412;8.790;2023-07-20T05:49:55;94554.50;;;18.81;90.23
68889;BME280;55930;47.412;8.790;2023-07-20T05:53:15;94557.47;;;18.77;87.54
68889;BME280;55930;47.412;8.790;2023-07-20T05:56:35;94559.47;;;19.22;81.55
68889;BME280;55930;47.412;8.790;2023-07-20T05:59:56;94556.78;;;18.90;81.99
68889;BME280;55930;47.412;8.790;2023-07-20T06:03:21;94562.66;;;19.20;81.92
68889;BME280;55930;47.412;8.790;2023-07-20T06:06:42;94562.66;;;19.33;78.55
68889;BME280;55930;47.412;8.790;2023-07-20T06:10:02;94559.00;;;19.63;76.57
68889;BME280;55930;47.412;8.790;2023-07-20T06:13:25;94558.13;;;19.41;78.50
68889;BME280;55930;47.412;8.790;2023-07-20T06:16:46;94557.53;;;19.75;78.69
68889;BME280;55930;47.412;8.790;2023-07-20T06:20:09;94554.25;;;19.69;74.08
68889;BME280;55930;47.412;8.790;2023-07-20T06:23:29;94558.72;;;19.21;79.12
68889;BME280;55930;47.412;8.790;2023-07-20T06:26:52;94567.03;;;18.91;79.19
68889;BME280;55930;47.412;8.790;2023-07-20T06:30:13;94556.59;;;19.01;80.22
68889;BME280;55930;47.412;8.790;2023-07-20T06:33:35;94554.34;;;19.05;79.80
68889;BME280;55930;47.412;8.790;2023-07-20T06:36:56;94541.13;;;19.20;77.95
68889;BME280;55930;47.412;8.790;2023-07-20T06:40:16;94552.69;;;19.47;78.18
68889;BME280;55930;47.412;8.790;2023-07-20T06:43:37;94558.31;;;20.22;71.48
68889;BME280;55930;47.412;8.790;2023-07-20T06:46:58;94556.06;;;21.02;72.39
68889;BME280;55930;47.412;8.790;2023-07-20T06:50:18;94556.16;;;20.89;70.35
68889;BME280;55930;47.412;8.790;2023-07-20T06:53:38;94553.47;;;20.89;70.03
68889;BME280;55930;47.412;8.790;2023-07-20T06:56:59;94557.00;;;20.84;70.51
68889;BME280;55930;47.412;8.790;2023-07-20T07:00:20;94557.00;;;21.05;68.55
68889;BME280;55930;47.412;8.790;2023-07-20T07:03:40;94558.75;;;20.13;71.18
68889;BME280;55930;47.412;8.790;2023-07-20T07:07:01;94562.13;;;20.74;70.92
68889;BME280;55930;47.412;8.790;2023-07-20T07:10:22;94557.53;;;20.82;71.29
68889;BME280;55930;47.412;8.790;2023-07-20T07:13:43;94557.66;;;20.97;72.40
68889;BME280;55930;47.412;8.790;2023-07-20T07:17:03;94559.41;;;22.80;66.15
68889;BME280;55930;47.412;8.790;2023-07-20T07:20:24;94559.88;;;22.71;65.50
68889;BME280;55930;47.412;8.790;2023-07-20T07:23:45;94557.34;;;22.07;67.08
68889;BME280;55930;47.412;8.790;2023-07-20T07:27:05;94561.69;;;22.69;66.17
68889;BME280;55930;47.412;8.790;2023-07-20T07:30:26;94560.50;;;23.08;63.29
68889;BME280;55930;47.412;8.790;2023-07-20T07:33:46;94563.75;;;23.14;64.58
68889;BME280;55930;47.412;8.790;2023-07-20T07:37:07;94552.75;;;23.19;63.08
68889;BME280;55930;47.412;8.790;2023-07-20T07:40:27;94547.84;;;23.56;59.79
68889;BME280;55930;47.412;8.790;2023-07-20T07:43:48;94555.09;;;24.31;58.36
68889;BME280;55930;47.412;8.790;2023-07-20T07:47:09;94544.28;;;24.16;56.77
68889;BME280;55930;47.412;8.790;2023-07-20T07:50:30;94542.09;;;23.44;58.27
68889;BME280;55930;47.412;8.790;2023-07-20T07:53:52;94543.94;;;24.04;60.64
68889;BME280;55930;47.412;8.790;2023-07-20T07:57:13;94548.53;;;24.42;54.66
68889;BME280;55930;47.412;8.790;2023-07-20T08:00:36;94542.03;;;23.82;56.67
68889;BME280;55930;47.412;8.790;2023-07-20T08:03:59;94543.59;;;24.08;55.88
68889;BME280;55930;47.412;8.790;2023-07-20T08:07:19;94545.50;;;24.63;54.22
68889;BME280;55930;47.412;8.790;2023-07-20T08:10:40;94543.25;;;24.76;53.96
68889;BME280;55930;47.412;8.790;2023-07-20T08:14:00;94544.56;;;25.25;52.94
68889;BME280;55930;47.412;8.790;2023-07-20T08:17:21;94537.22;;;24.86;52.41
68889;BME280;55930;47.412;8.790;2023-07-20T08:20:45;94538.16;;;26.24;52.61
68889;BME280;55930;47.412;8.790;2023-07-20T08:24:05;94533.09;;;25.51;50.39
68889;BME280;55930;47.412;8.790;2023-07-20T08:27:26;94537.91;;;26.12;53.81
68889;BME280;55930;47.412;8.790;2023-07-20T08:30:47;94534.09;;;25.64;52.16
68889;BME280;55930;47.412;8.790;2023-07-20T08:34:08;94533.19;;;26.13;49.20
68889;BME280;55930;47.412;8.790;2023-07-20T08:37:28;94527.28;;;26.24;49.00
68889;BME280;55930;47.412;8.790;2023-07-20T08:40:49;94542.72;;;26.92;52.17
68889;BME280;55930;47.412;8.790;2023-07-20T08:44:10;94538.91;;;27.05;49.79
68889;BME280;55930;47.412;8.790;2023-07-20T08:47:31;94534.19;;;27.15;50.60
68889;BME280;55930;47.412;8.790;2023-07-20T08:50:52;94535.34;;;26.49;47.36
68889;BME280;55930;47.412;8.790;2023-07-20T08:54:14;94526.75;;;27.81;45.67
68889;BME280;55930;47.412;8.790;2023-07-20T08:57:36;94523.38;;;29.00;43.37
68889;BME280;55930;47.412;8.790;2023-07-20T09:00:58;94525.03;;;30.10;40.56
68889;BME280;55930;47.412;8.790;2023-07-20T09:04:20;94516.94;;;30.00;40.22
68889;BME280;55930;47.412;8.790;2023-07-20T09:07:41;94518.03;;;30.18;40.46
68889;BME280;55930;47.412;8.790;2023-07-20T09:11:02;94514.13;;;30.66;41.52
68889;BME280;55930;47.412;8.790;2023-07-20T09:14:23;94515.53;;;31.72;38.67
68889;BME280;55930;47.412;8.790;2023-07-20T09:17:47;94516.06;;;31.33;37.77
68889;BME280;55930;47.412;8.790;2023-07-20T09:21:08;94507.81;;;29.12;40.57
68889;BME280;55930;47.412;8.790;2023-07-20T09:24:29;94511.41;;;25.86;49.51
68889;BME280;55930;47.412;8.790;2023-07-20T09:27:52;94507.56;;;27.33;48.36
68889;BME280;55930;47.412;8.790;2023-07-20T09:31:19;94500.41;;;26.55;47.97
68889;BME280;55930;47.412;8.790;2023-07-20T09:34:40;94496.97;;;28.93;42.16
68889;BME280;55930;47.412;8.790;2023-07-20T09:38:01;94499.56;;;25.91;47.52
68889;BME280;55930;47.412;8.790;2023-07-20T09:41:22;94508.63;;;25.34;50.46
68889;BME280;55930;47.412;8.790;2023-07-20T09:44:46;94498.25;;;26.53;48.94
68889;BME280;55930;47.412;8.790;2023-07-20T09:48:07;94488.28;;;28.66;44.82
68889;BME280;55930;47.412;8.790;2023-07-20T09:51:28;94487.34;;;31.34;41.68
68889;BME280;55930;47.412;8.790;2023-07-20T09:54:49;94484.84;;;31.87;37.26
68889;BME280;55930;47.412;8.790;2023-07-20T09:58:10;94486.97;;;30.58;38.12
68889;BME280;55930;47.412;8.790;2023-07-20T10:01:32;94496.41;;;31.02;38.39
68889;BME280;55930;47.412;8.790;2023-07-20T10:05:00;94486.13;;;32.48;34.45
68889;BME280;55930;47.412;8.790;2023-07-20T10:08:24;94478.91;;;32.04;35.24
68889;BME280;55930;47.412;8.790;2023-07-20T10:11:50;94477.81;;;29.24;38.54
68889;BME280;55930;47.412;8.790;2023-07-20T10:15:27;94480.72;;;25.76;46.42
68889;BME280;55930;47.412;8.790;2023-07-20T10:18:55;94479.88;;;30.32;39.69
68889;BME280;55930;47.412;8.790;2023-07-20T10:22:25;94464.28;;;28.14;40.53
68889;BME280;55930;47.412;8.790;2023-07-20T10:25:46;94471.66;;;28.92;44.21
68889;BME280;55930;47.412;8.790;2023-07-20T10:29:07;94469.59;;;30.09;37.85
68889;BME280;55930;47.412;8.790;2023-07-20T10:32:28;94454.63;;;28.32;43.21
68889;BME280;55930;47.412;8.790;2023-07-20T10:35:54;94449.19;;;28.13;41.67
68889;BME280;55930;47.412;8.790;2023-07-20T10:42:47;94446.53;;;26.53;45.48
68889;BME280;55930;47.412;8.790;2023-07-20T10:46:07;94444.50;;;27.85;49.72
68889;BME280;55930;47.412;8.790;2023-07-20T10:49:33;94436.88;;;29.45;44.88
68889;BME280;55930;47.412;8.790;2023-07-20T10:53:16;94431.69;;;28.06;44.69
68889;BME280;55930;47.412;8.790;2023-07-20T10:56:37;94442.34;;;27.35;45.17
68889;BME280;55930;47.412;8.790;2023-07-20T11:00:08;94433.66;;;26.54;48.72
68889;BME280;55930;47.412;8.790;2023-07-20T11:03:34;94418.78;;;27.97;48.58
68889;BME280;55930;47.412;8.790;2023-07-20T11:06:57;94423.50;;;27.00;47.14
68889;BME280;55930;47.412;8.790;2023-07-20T11:10:18;94422.97;;;27.12;45.21
68889;BME280;55930;47.412;8.790;2023-07-20T11:13:59;94413.09;;;26.07;47.50
68889;BME280;55930;47.412;8.790;2023-07-20T11:17:32;94411.88;;;26.54;48.76
68889;BME280;55930;47.412;8.790;2023-07-20T11:20:56;94412.06;;;27.21;46.29
68889;BME280;55930;47.412;8.790;2023-07-20T11:24:17;94417.22;;;26.61;46.27
68889;BME280;55930;47.412;8.790;2023-07-20T11:27:45;94425.00;;;25.33;48.20
68889;BME280;55930;47.412;8.790;2023-07-20T11:31:05;94415.94;;;24.96;47.95
68889;BME280;55930;47.412;8.790;2023-07-20T11:34:26;94417.63;;;26.94;49.72
68889;BME280;55930;47.412;8.790;2023-07-20T11:37:47;94411.09;;;25.46;47.77
68889;BME280;55930;47.412;8.790;2023-07-20T11:41:10;94415.16;;;24.78;50.75
68889;BME280;55930;47.412;8.790;2023-07-20T11:44:30;94409.56;;;25.18;50.50
68889;BME280;55930;47.412;8.790;2023-07-20T11:47:53;94404.47;;;25.22;52.21
68889;BME280;55930;47.412;8.790;2023-07-20T11:51:17;94394.94;;;25.65;52.35
68889;BME280;55930;47.412;8.790;2023-07-20T11:54:39;94394.72;;;25.02;50.06
68889;BME280;55930;47.412;8.790;2023-07-20T11:58:06;94396.25;;;24.70;51.19
68889;BME280;55930;47.412;8.790;2023-07-20T12:01:28;94384.44;;;24.75;49.60
68889;BME280;55930;47.412;8.790;2023-07-20T12:04:49;94388.88;;;24.63;49.77
68889;BME280;55930;47.412;8.790;2023-07-20T12:08:10;94382.69;;;24.88;53.90
68889;BME280;55930;47.412;8.790;2023-07-20T12:11:35;94376.47;;;24.53;49.25
68889;BME280;55930;47.412;8.790;2023-07-20T12:18:42;94365.63;;;24.53;53.44
68889;BME280;55930;47.412;8.790;2023-07-20T12:22:03;94368.19;;;25.62;50.93
68889;BME280;55930;47.412;8.790;2023-07-20T12:25:23;94362.84;;;25.37;49.18
68889;BME280;55930;47.412;8.790;2023-07-20T12:28:44;94361.28;;;25.78;48.65
68889;BME280;55930;47.412;8.790;2023-07-20T12:32:05;94360.75;;;25.45;48.49
68889;BME280;55930;47.412;8.790;2023-07-20T12:35:25;94352.09;;;25.12;47.64
68889;BME280;55930;47.412;8.790;2023-07-20T12:38:46;94354.47;;;24.91;50.80
68889;BME280;55930;47.412;8.790;2023-07-20T12:42:09;94350.63;;;25.45;49.98
68889;BME280;55930;47.412;8.790;2023-07-20T12:45:29;94341.50;;;25.50;47.39
68889;BME280;55930;47.412;8.790;2023-07-20T12:48:50;94344.94;;;24.65;48.14
68889;BME280;55930;47.412;8.790;2023-07-20T12:52:11;94349.63;;;25.95;53.61
68889;BME280;55930;47.412;8.790;2023-07-20T12:55:31;94340.03;;;26.76;46.52
68889;BME280;55930;47.412;8.790;2023-07-20T12:58:52;94339.06;;;25.54;47.40
68889;BME280;55930;47.412;8.790;2023-07-20T13:02:12;94331.47;;;27.47;51.23
68889;BME280;55930;47.412;8.790;2023-07-20T13:05:36;94323.44;;;27.39;45.50
68889;BME280;55930;47.412;8.790;2023-07-20T13:08:56;94320.44;;;27.07;43.53
68889;BME280;55930;47.412;8.790;2023-07-20T13:12:18;94318.34;;;27.84;43.90
68889;BME280;55930;47.412;8.790;2023-07-20T13:15:44;94318.06;;;27.80;49.59
68889;BME280;55930;47.412;8.790;2023-07-20T13:19:06;94314.06;;;27.71;47.01
68889;BME280;55930;47.412;8.790;2023-07-20T13:22:26;94309.53;;;26.78;45.91
68889;BME280;55930;47.412;8.790;2023-07-20T13:25:47;94309.25;;;26.74;44.96
68889;BME280;55930;47.412;8.790;2023-07-20T13:29:07;94305.38;;;27.34;42.14
68889;BME280;55930;47.412;8.790;2023-07-20T13:32:28;94304.34;;;27.68;42.86
68889;BME280;55930;47.412;8.790;2023-07-20T13:35:48;94299.69;;;27.90;44.13
68889;BME280;55930;47.412;8.790;2023-07-20T13:39:09;94302.16;;;27.76;42.36
68889;BME280;55930;47.412;8.790;2023-07-20T13:42:29;94295.38;;;27.87;44.57
68889;BME280;55930;47.412;8.790;2023-07-20T13:45:49;94292.50;;;28.78;43.58
68889;BME280;55930;47.412;8.790;2023-07-20T13:49:10;94280.44;;;27.28;43.26
68889;BME280;55930;47.412;8.790;2023-07-20T13:52:33;94278.75;;;28.14;42.69
68889;BME280;55930;47.412;8.790;2023-07-20T13:55:54;94271.81;;;26.74;43.31
68889;BME280;55930;47.412;8.790;2023-07-20T13:59:14;94277.50;;;28.05;40.75
68889;BME280;55930;47.412;8.790;2023-07-20T14:02:34;94264.38;;;27.23;41.44
68889;BME280;55930;47.412;8.790;2023-07-20T14:05:56;94258.66;;;27.28;43.96
68889;BME280;55930;47.412;8.790;2023-07-20T14:09:17;94260.66;;;27.37;44.20
68889;BME280;55930;47.412;8.790;2023-07-20T14:12:37;94250.81;;;26.94;44.94
68889;BME280;55930;47.412;8.790;2023-07-20T14:15:58;94257.31;;;27.58;43.83
68889;BME280;55930;47.412;8.790;2023-07-20T14:19:21;94259.88;;;27.56;43.16
68889;BME280;55930;47.412;8.790;2023-07-20T14:22:41;94264.53;;;26.67;42.56
68889;BME280;55930;47.412;8.790;2023-07-20T14:26:02;94261.69;;;27.03;42.32
68889;BME280;55930;47.412;8.790;2023-07-20T14:29:25;94262.25;;;27.21;44.35
68889;BME280;55930;47.412;8.790;2023-07-20T14:32:45;94259.25;;;27.08;42.47
68889;BME280;55930;47.412;8.790;2023-07-20T14:36:06;94251.13;;;27.48;44.63
68889;BME280;55930;47.412;8.790;2023-07-20T14:39:26;94248.78;;;27.14;44.27
68889;BME280;55930;47.412;8.790;2023-07-20T14:42:47;94249.06;;;26.98;44.01
68889;BME280;55930;47.412;8.790;2023-07-20T14:46:07;94252.19;;;27.33;43.76
68889;BME280;55930;47.412;8.790;2023-07-20T14:49:30;94249.78;;;27.09;44.51
68889;BME280;55930;47.412;8.790;2023-07-20T14:52:50;94247.63;;;26.88;45.33
68889;BME280;55930;47.412;8.790;2023-07-20T14:56:14;94240.09;;;27.46;41.82
68889;BME280;55930;47.412;8.790;2023-07-20T14:59:34;94238.41;;;27.31;43.60
68889;BME280;55930;47.412;8.790;2023-07-20T15:02:54;94251.94;;;27.20;42.88
68889;BME280;55930;47.412;8.790;2023-07-20T15:06:18;94240.91;;;26.79;43.71
68889;BME280;55930;47.412;8.790;2023-07-20T15:09:38;94247.66;;;26.97;45.51
68889;BME280;55930;47.412;8.790;2023-07-20T15:12:59;94237.44;;;26.69;43.10
68889;BME280;55930;47.412;8.790;2023-07-20T15:16:20;94238.31;;;26.91;43.40
68889;BME280;55930;47.412;8.790;2023-07-20T15:19:42;94228.53;;;27.26;42.00
68889;BME280;55930;47.412;8.790;2023-07-20T15:23:05;94240.31;;;27.10;43.33
68889;BME280;55930;47.412;8.790;2023-07-20T15:26:26;94223.66;;;27.34;41.89
68889;BME280;55930;47.412;8.790;2023-07-20T15:29:48;94228.56;;;27.17;44.77
68889;BME280;55930;47.412;8.790;2023-07-20T15:33:08;94211.34;;;27.24;44.36
68889;BME280;55930;47.412;8.790;2023-07-20T15:36:29;94210.03;;;27.25;44.89
68889;BME280;55930;47.412;8.790;2023-07-20T15:39:51;94213.66;;;26.89;41.99
68889;BME280;55930;47.412;8.790;2023-07-20T15:43:12;94211.25;;;26.54;43.89
68889;BME280;55930;47.412;8.790;2023-07-20T15:49:58;94201.19;;;26.28;43.31
68889;BME280;55930;47.412;8.790;2023-07-20T15:53:19;94193.75;;;26.28;43.20
68889;BME280;55930;47.412;8.790;2023-07-20T15:56:40;94201.44;;;26.13;45.84
68889;BME280;55930;47.412;8.790;2023-07-20T16:00:01;94196.19;;;26.53;47.18
68889;BME280;55930;47.412;8.790;2023-07-20T16:03:22;94199.34;;;27.58;42.34
68889;BME280;55930;47.412;8.790;2023-07-20T16:06:44;94200.06;;;26.70;44.80
68889;BME280;55930;47.412;8.790;2023-07-20T16:10:05;94189.31;;;26.43;44.64
68889;BME280;55930;47.412;8.790;2023-07-20T16:13:29;94192.03;;;26.52;44.53
68889;BME280;55930;47.412;8.790;2023-07-20T16:16:50;94187.44;;;26.36;43.61
68889;BME280;55930;47.412;8.790;2023-07-20T16:20:10;94183.84;;;26.23;44.38
68889;BME280;55930;47.412;8.790;2023-07-20T16:23:31;94185.84;;;26.13;46.83
68889;BME280;55930;47.412;8.790;2023-07-20T16:26:51;94179.19;;;25.78;46.66
68889;BME280;55930;47.412;8.790;2023-07-20T16:30:14;94181.59;;;26.29;45.01
68889;BME280;55930;47.412;8.790;2023-07-20T16:33:35;94175.38;;;26.19;45.78
68889;BME280;55930;47.412;8.790;2023-07-20T16:36:56;94183.88;;;26.43;45.07
68889;BME280;55930;47.412;8.790;2023-07-20T16:40:16;94179.44;;;26.28;45.15
68889;BME280;55930;47.412;8.790;2023-07-20T16:43:39;94178.81;;;26.10;46.01
68889;BME280;55930;47.412;8.790;2023-07-20T16:46:59;94180.13;;;26.09;47.81
68889;BME280;55930;47.412;8.790;2023-07-20T16:50:20;94179.28;;;25.70;48.54
68889;BME280;55930;47.412;8.790;2023-07-20T16:53:40;94172.56;;;25.35;45.32
68889;BME280;55930;47.412;8.790;2023-07-20T16:57:01;94171.50;;;24.94;49.82
68889;BME280;55930;47.412;8.790;2023-07-20T17:00:21;94178.31;;;25.12;47.04
68889;BME280;55930;47.412;8.790;2023-07-20T17:03:42;94178.44;;;25.04;46.95
68889;BME280;55930;47.412;8.790;2023-07-20T17:07:02;94176.44;;;24.88;53.65
68889;BME280;55930;47.412;8.790;2023-07-20T17:10:23;94177.97;;;24.81;48.64
68889;BME280;55930;47.412;8.790;2023-07-20T17:13:43;94180.28;;;24.67;56.12
68889;BME280;55930;47.412;8.790;2023-07-20T17:17:04;94182.53;;;24.78;50.94
68889;BME280;55930;47.412;8.790;2023-07-20T17:20:25;94181.09;;;24.60;52.42
68889;BME280;55930;47.412;8.790;2023-07-20T17:23:45;94177.09;;;24.96;53.16
68889;BME280;55930;47.412;8.790;2023-07-20T17:27:06;94172.06;;;24.75;59.27
68889;BME280;55930;47.412;8.790;2023-07-20T17:30:26;94181.78;;;24.34;60.06
68889;BME280;55930;47.412;8.790;2023-07-20T17:33:48;94175.00;;;24.25;60.73
68889;BME280;55930;47.412;8.790;2023-07-20T17:37:09;94177.50;;;24.06;61.23
68889;BME280;55930;47.412;8.790;2023-07-20T17:40:31;94177.00;;;24.00;63.93
68889;BME280;55930;47.412;8.790;2023-07-20T17:43:52;94173.34;;;23.63;66.83
68889;BME280;55930;47.412;8.790;2023-07-20T17:47:13;94169.94;;;23.62;66.48
68889;BME280;55930;47.412;8.790;2023-07-20T17:50:33;94174.78;;;23.32;69.29
68889;BME280;55930;47.412;8.790;2023-07-20T17:53:53;94171.00;;;23.02;66.71